createdAt,value
2018-05-09T00:00:55.059Z,44.30
2018-05-09T00:02:00.047Z,44.30
2018-05-09T00:03:05.244Z,44.30
2018-05-09T00:04:10.289Z,44.30
2018-05-09T00:05:15.498Z,44.30
2018-05-09T00:06:20.719Z,44.30
2018-05-09T00:07:25.975Z,44.40
2018-05-09T00:08:31.202Z,44.40
2018-05-09T00:09:36.121Z,44.30
2018-05-09T00:10:41.272Z,44.30
2018-05-09T00:11:46.158Z,44.40
2018-05-09T00:12:51.131Z,45.00
2018-05-09T00:13:56.528Z,44.40
2018-05-09T00:15:01.532Z,44.30
2018-05-09T00:16:06.676Z,44.30
2018-05-09T00:17:11.801Z,44.30
2018-05-09T00:18:18.728Z,44.30
2018-05-09T00:19:24.367Z,44.30
2018-05-09T00:20:29.401Z,44.40
2018-05-09T00:21:34.527Z,44.40
2018-05-09T00:22:41.502Z,44.40
2018-05-09T00:23:56.945Z,44.40
2018-05-09T00:25:01.875Z,44.40
2018-05-09T00:26:07.054Z,44.40
2018-05-09T00:27:12.092Z,44.40
2018-05-09T00:28:17.070Z,44.40
2018-05-09T00:29:23.310Z,44.40
2018-05-09T00:30:28.695Z,44.50
2018-05-09T00:31:34.263Z,44.40
2018-05-09T00:32:39.350Z,45.30
2018-05-09T00:33:44.468Z,44.40
2018-05-09T00:34:51.246Z,44.50
2018-05-09T00:35:57.969Z,44.50
2018-05-09T00:37:03.250Z,44.50
2018-05-09T00:38:10.204Z,44.50
2018-05-09T00:39:16.945Z,44.50
2018-05-09T00:40:22.337Z,44.50
2018-05-09T00:41:28.778Z,44.50
2018-05-09T00:42:34.001Z,44.50
2018-05-09T00:43:39.365Z,44.50
2018-05-09T00:44:44.876Z,44.50
2018-05-09T00:45:49.751Z,44.50
2018-05-09T00:46:55.289Z,44.50
2018-05-09T00:48:01.403Z,44.50
2018-05-09T00:49:07.411Z,44.60
2018-05-09T00:50:12.607Z,44.50
2018-05-09T00:51:18.669Z,44.50
2018-05-09T00:52:24.580Z,44.50
2018-05-09T00:53:29.722Z,44.50
2018-05-09T00:54:35.677Z,44.60
2018-05-09T00:55:40.763Z,44.50
2018-05-09T00:56:46.007Z,44.50
2018-05-09T00:57:51.298Z,44.60
2018-05-09T00:58:56.397Z,44.60
2018-05-09T01:00:01.502Z,44.50
2018-05-09T01:01:06.397Z,44.60
2018-05-09T01:02:11.386Z,44.60
2018-05-09T01:03:16.583Z,44.60
2018-05-09T01:04:21.748Z,44.60
2018-05-09T01:05:26.730Z,44.60
2018-05-09T01:06:31.740Z,44.60
2018-05-09T01:07:37.049Z,44.60
2018-05-09T01:08:42.370Z,44.60
2018-05-09T01:09:47.422Z,44.60
2018-05-09T01:10:52.620Z,44.60
2018-05-09T01:11:57.751Z,44.70
2018-05-09T01:13:02.511Z,44.60
2018-05-09T01:14:07.286Z,44.70
2018-05-09T01:15:12.153Z,44.60
2018-05-09T01:16:16.955Z,44.70
2018-05-09T01:17:21.645Z,44.60
2018-05-09T01:18:26.411Z,44.60
2018-05-09T01:19:31.573Z,44.60
2018-05-09T01:20:36.770Z,44.70
2018-05-09T01:21:42.013Z,44.60
2018-05-09T01:22:47.932Z,44.70
2018-05-09T01:23:52.975Z,44.60
2018-05-09T01:24:58.014Z,44.70
2018-05-09T01:26:03.329Z,44.70
2018-05-09T01:27:08.411Z,44.70
2018-05-09T01:28:13.201Z,44.70
2018-05-09T01:29:18.227Z,44.70
2018-05-09T01:30:23.148Z,44.80
2018-05-09T01:31:28.270Z,44.80
2018-05-09T01:32:33.326Z,44.70
2018-05-09T01:33:38.428Z,44.70
2018-05-09T01:34:43.492Z,44.80
2018-05-09T01:35:48.503Z,44.80
2018-05-09T01:36:53.603Z,44.80
2018-05-09T01:37:59.406Z,44.80
2018-05-09T01:39:04.301Z,44.80
2018-05-09T01:40:09.390Z,44.80
2018-05-09T01:41:14.960Z,44.80
2018-05-09T01:42:20.307Z,44.80
2018-05-09T01:43:25.490Z,44.80
2018-05-09T01:44:30.209Z,44.80
2018-05-09T01:45:35.163Z,44.80
2018-05-09T01:46:40.070Z,44.70
2018-05-09T01:47:45.268Z,44.80
2018-05-09T01:48:50.103Z,44.90
2018-05-09T01:49:55.191Z,44.80
2018-05-09T01:51:00.187Z,44.90
2018-05-09T01:52:05.282Z,44.90
2018-05-09T01:53:10.431Z,44.90
2018-05-09T01:54:15.439Z,44.90
2018-05-09T01:55:20.575Z,44.90
2018-05-09T01:56:25.512Z,44.90
2018-05-09T01:57:30.741Z,44.90
2018-05-09T01:58:35.909Z,44.90
2018-05-09T01:59:41.340Z,44.90
2018-05-09T02:00:46.595Z,44.90
2018-05-09T02:01:51.644Z,44.90
2018-05-09T02:02:56.890Z,44.90
2018-05-09T02:04:03.137Z,44.90
2018-05-09T02:05:08.494Z,44.90
2018-05-09T02:06:13.952Z,44.90
2018-05-09T02:07:19.426Z,44.90
2018-05-09T02:08:24.816Z,45.00
2018-05-09T02:09:30.097Z,45.00
2018-05-09T02:10:35.508Z,45.00
2018-05-09T02:11:40.791Z,45.00
2018-05-09T02:12:46.325Z,45.00
2018-05-09T02:13:51.748Z,45.10
2018-05-09T02:14:56.947Z,45.00
2018-05-09T02:16:01.721Z,45.00
2018-05-09T02:17:06.628Z,45.00
2018-05-09T02:18:11.590Z,45.00
2018-05-09T02:19:16.391Z,45.00
2018-05-09T02:20:21.457Z,45.10
2018-05-09T02:21:26.505Z,45.00
2018-05-09T02:22:31.200Z,45.10
2018-05-09T02:23:36.156Z,45.10
2018-05-09T02:24:41.090Z,45.10
2018-05-09T02:25:46.224Z,45.10
2018-05-09T02:26:51.110Z,45.10
2018-05-09T02:27:55.790Z,45.10
2018-05-09T02:29:00.637Z,45.10
2018-05-09T02:30:05.373Z,45.10
2018-05-09T02:31:10.659Z,45.10
2018-05-09T02:32:15.687Z,45.10
2018-05-09T02:33:20.887Z,45.10
2018-05-09T02:34:25.762Z,45.10
2018-05-09T02:35:30.742Z,45.10
2018-05-09T02:36:35.795Z,45.20
2018-05-09T02:37:40.726Z,45.10
2018-05-09T02:38:45.584Z,45.20
2018-05-09T02:39:50.317Z,45.20
2018-05-09T02:40:55.041Z,45.20
2018-05-09T02:42:00.182Z,45.20
2018-05-09T02:43:05.124Z,45.20
2018-05-09T02:44:10.130Z,45.20
2018-05-09T02:45:15.101Z,45.20
2018-05-09T02:46:20.016Z,45.20
2018-05-09T02:47:24.662Z,45.20
2018-05-09T02:48:29.563Z,45.30
2018-05-09T02:49:34.463Z,45.20
2018-05-09T02:50:39.211Z,45.20
2018-05-09T02:51:44.311Z,45.20
2018-05-09T02:52:49.273Z,45.20
2018-05-09T02:53:54.058Z,45.20
2018-05-09T02:54:58.916Z,45.90
2018-05-09T02:56:04.015Z,45.30
2018-05-09T02:57:08.961Z,45.30
2018-05-09T02:58:13.636Z,45.30
2018-05-09T02:59:18.748Z,45.30
2018-05-09T03:00:23.480Z,45.30
2018-05-09T03:01:28.583Z,45.30
2018-05-09T03:02:33.458Z,45.30
2018-05-09T03:03:38.392Z,45.30
2018-05-09T03:04:43.369Z,45.30
2018-05-09T03:05:48.250Z,45.30
2018-05-09T03:06:53.161Z,45.30
2018-05-09T03:07:58.311Z,45.40
2018-05-09T03:09:03.263Z,45.40
2018-05-09T03:10:08.141Z,45.30
2018-05-09T03:11:13.981Z,45.40
2018-05-09T03:12:18.707Z,45.40
2018-05-09T03:13:23.433Z,45.40
2018-05-09T03:14:28.427Z,45.40
2018-05-09T03:15:33.348Z,45.30
2018-05-09T03:16:38.320Z,45.40
2018-05-09T03:17:43.262Z,45.40
2018-05-09T03:18:48.369Z,45.40
2018-05-09T03:19:53.276Z,45.40
2018-05-09T03:20:58.001Z,46.00
2018-05-09T03:22:02.974Z,45.40
2018-05-09T03:23:07.901Z,45.40
2018-05-09T03:24:12.902Z,45.40
2018-05-09T03:25:17.640Z,45.40
2018-05-09T03:26:22.626Z,45.40
2018-05-09T03:27:27.346Z,45.40
2018-05-09T03:28:32.352Z,45.40
2018-05-09T03:29:37.787Z,45.50
2018-05-09T03:30:42.535Z,45.40
2018-05-09T03:31:47.572Z,45.40
2018-05-09T03:32:52.642Z,45.40
2018-05-09T03:33:57.724Z,45.40
2018-05-09T03:35:02.748Z,45.50
2018-05-09T03:36:07.452Z,45.50
2018-05-09T03:37:12.615Z,45.50
2018-05-09T03:38:17.560Z,45.50
2018-05-09T03:39:22.625Z,45.50
2018-05-09T03:40:27.340Z,45.50
2018-05-09T03:41:32.163Z,45.50
2018-05-09T03:42:37.190Z,45.50
2018-05-09T03:43:42.318Z,45.50
2018-05-09T03:44:47.444Z,45.50
2018-05-09T03:45:52.323Z,45.50
2018-05-09T03:46:57.708Z,45.50
2018-05-09T03:48:02.590Z,45.50
2018-05-09T03:49:08.323Z,45.50
2018-05-09T03:50:13.004Z,45.50
2018-05-09T03:51:17.924Z,45.50
2018-05-09T03:52:22.887Z,45.50
2018-05-09T03:53:27.667Z,45.50
2018-05-09T03:54:32.385Z,45.50
2018-05-09T03:55:37.333Z,45.50
2018-05-09T03:56:42.726Z,45.50
2018-05-09T03:57:47.672Z,45.60
2018-05-09T03:58:52.765Z,45.50
2018-05-09T03:59:57.662Z,45.60
2018-05-09T04:01:02.759Z,45.50
2018-05-09T04:02:07.410Z,45.50
2018-05-09T04:03:12.478Z,45.50
2018-05-09T04:04:17.119Z,45.50
2018-05-09T04:05:21.821Z,45.50
2018-05-09T04:06:26.686Z,45.60
2018-05-09T04:07:31.484Z,45.60
2018-05-09T04:08:36.341Z,45.60
2018-05-09T04:09:40.953Z,45.60
2018-05-09T04:10:46.408Z,45.60
2018-05-09T04:11:51.499Z,45.60
2018-05-09T04:12:56.582Z,45.70
2018-05-09T04:14:01.532Z,45.70
2018-05-09T04:15:06.523Z,45.70
2018-05-09T04:16:11.260Z,45.70
2018-05-09T04:17:16.361Z,45.80
2018-05-09T04:18:21.486Z,45.80
2018-05-09T04:19:26.787Z,45.80
2018-05-09T04:20:31.818Z,45.80
2018-05-09T04:21:36.805Z,45.90
2018-05-09T04:22:41.731Z,45.90
2018-05-09T04:23:46.852Z,45.90
2018-05-09T04:26:08.905Z,45.90
2018-05-09T04:27:13.583Z,45.90
2018-05-09T04:28:18.478Z,45.90
2018-05-09T04:29:26.408Z,46.00
2018-05-09T04:30:31.318Z,46.00
2018-05-09T04:31:36.138Z,46.00
2018-05-09T04:32:41.232Z,46.60
2018-05-09T04:33:46.123Z,46.00
2018-05-09T04:34:50.908Z,46.00
2018-05-09T04:35:55.711Z,46.00
2018-05-09T04:37:00.531Z,46.00
2018-05-09T04:38:05.450Z,46.10
2018-05-09T04:39:10.157Z,46.10
2018-05-09T04:40:14.970Z,46.10
2018-05-09T04:41:19.842Z,46.10
2018-05-09T04:42:24.914Z,46.10
2018-05-09T04:43:29.735Z,46.10
2018-05-09T04:44:34.531Z,46.10
2018-05-09T04:45:39.647Z,46.10
2018-05-09T04:46:44.690Z,46.10
2018-05-09T04:47:49.618Z,46.10
2018-05-09T04:48:54.492Z,46.10
2018-05-09T04:49:59.313Z,46.10
2018-05-09T04:51:04.888Z,46.10
2018-05-09T04:52:09.592Z,46.10
2018-05-09T04:53:14.419Z,46.10
2018-05-09T04:54:19.297Z,46.20
2018-05-09T04:55:24.123Z,46.20
2018-05-09T04:56:28.985Z,46.10
2018-05-09T04:57:33.888Z,46.20
2018-05-09T04:58:38.944Z,46.20
2018-05-09T04:59:43.830Z,46.20
2018-05-09T05:00:48.906Z,46.20
2018-05-09T05:01:53.830Z,46.30
2018-05-09T05:02:58.644Z,46.20
2018-05-09T05:04:03.441Z,46.20
2018-05-09T05:05:08.287Z,46.20
2018-05-09T05:06:13.351Z,46.20
2018-05-09T05:07:18.303Z,46.10
2018-05-09T05:08:23.265Z,46.10
2018-05-09T05:09:30.052Z,46.10
2018-05-09T05:10:34.885Z,46.10
2018-05-09T05:11:39.595Z,46.10
2018-05-09T05:12:44.630Z,46.10
2018-05-09T05:13:49.643Z,46.10
2018-05-09T05:14:54.283Z,46.00
2018-05-09T05:15:59.677Z,45.80
2018-05-09T05:17:04.557Z,45.60
2018-05-09T05:18:09.935Z,45.60
2018-05-09T05:19:14.708Z,45.50
2018-05-09T05:20:19.453Z,45.40
2018-05-09T05:21:24.237Z,45.30
2018-05-09T05:22:29.117Z,45.10
2018-05-09T05:23:33.727Z,45.10
2018-05-09T05:24:38.676Z,45.10
2018-05-09T05:25:43.457Z,45.20
2018-05-09T05:26:48.150Z,44.90
2018-05-09T05:27:53.208Z,44.90
2018-05-09T05:28:57.853Z,44.70
2018-05-09T05:30:03.411Z,44.70
2018-05-09T05:31:08.308Z,44.50
2018-05-09T05:32:13.272Z,44.30
2018-05-09T05:33:17.917Z,44.40
2018-05-09T05:34:22.575Z,44.40
2018-05-09T05:35:27.385Z,44.40
2018-05-09T05:36:32.069Z,44.50
2018-05-09T05:37:37.006Z,44.40
2018-05-09T05:38:41.727Z,44.40
2018-05-09T05:39:46.575Z,44.50
2018-05-09T05:40:51.950Z,44.60
2018-05-09T05:41:56.915Z,44.50
2018-05-09T05:43:01.822Z,44.50
2018-05-09T05:44:06.897Z,44.40
2018-05-09T05:45:12.886Z,44.40
2018-05-09T05:46:17.436Z,44.30
2018-05-09T05:47:22.156Z,44.40
2018-05-09T05:48:26.910Z,44.30
2018-05-09T05:49:31.772Z,44.30
2018-05-09T05:50:36.783Z,44.20
2018-05-09T05:51:41.880Z,44.30
2018-05-09T05:52:46.805Z,44.30
2018-05-09T05:53:51.701Z,44.30
2018-05-09T05:54:56.682Z,44.30
2018-05-09T05:56:01.638Z,44.40
2018-05-09T05:57:06.300Z,44.40
2018-05-09T05:58:11.135Z,44.40
2018-05-09T05:59:16.162Z,44.50
2018-05-09T06:00:21.144Z,44.50
2018-05-09T06:01:26.019Z,44.50
2018-05-09T06:02:30.864Z,44.50
2018-05-09T06:03:35.581Z,44.40
2018-05-09T06:04:40.582Z,44.40
2018-05-09T06:05:45.490Z,44.30
2018-05-09T06:06:50.262Z,44.30
2018-05-09T06:07:55.038Z,44.20
2018-05-09T06:08:59.803Z,44.20
2018-05-09T06:10:05.237Z,44.20
2018-05-09T06:11:10.045Z,44.20
2018-05-09T06:12:15.074Z,44.00
2018-05-09T06:13:20.029Z,44.00
2018-05-09T06:14:25.101Z,44.10
2018-05-09T06:15:30.153Z,44.00
2018-05-09T06:16:34.943Z,44.20
2018-05-09T06:17:40.584Z,44.20
2018-05-09T06:18:48.631Z,44.20
2018-05-09T06:19:53.966Z,44.20
2018-05-09T06:21:00.339Z,44.20
2018-05-09T06:22:05.152Z,44.20
2018-05-09T06:23:09.798Z,44.10
2018-05-09T06:24:15.731Z,44.00
2018-05-09T06:25:20.723Z,44.00
2018-05-09T06:26:25.502Z,44.00
2018-05-09T06:27:30.180Z,43.90
2018-05-09T06:28:35.511Z,43.90
2018-05-09T06:29:40.180Z,44.00
2018-05-09T06:30:44.840Z,44.00
2018-05-09T06:31:51.220Z,44.00
2018-05-09T06:32:56.142Z,44.00
2018-05-09T06:34:01.173Z,44.00
2018-05-09T06:35:05.981Z,44.10
2018-05-09T06:36:10.833Z,44.00
2018-05-09T06:37:15.717Z,44.00
2018-05-09T06:38:20.579Z,44.00
2018-05-09T06:39:25.404Z,44.00
2018-05-09T06:40:31.808Z,44.00
2018-05-09T06:41:37.239Z,44.10
2018-05-09T06:42:41.959Z,44.10
2018-05-09T06:43:47.175Z,44.00
2018-05-09T06:44:52.244Z,44.00
2018-05-09T06:45:57.072Z,44.00
2018-05-09T06:47:01.793Z,44.20
2018-05-09T06:48:06.684Z,44.10
2018-05-09T06:49:11.648Z,44.20
2018-05-09T06:50:16.621Z,44.20
2018-05-09T06:51:22.231Z,44.20
2018-05-09T06:52:27.231Z,44.10
2018-05-09T06:53:31.991Z,44.10
2018-05-09T06:54:37.005Z,44.10
2018-05-09T06:55:42.015Z,44.10
2018-05-09T06:56:47.028Z,44.10
2018-05-09T06:57:51.876Z,44.10
2018-05-09T06:58:56.576Z,44.10
2018-05-09T07:00:01.744Z,44.10
2018-05-09T07:01:06.477Z,44.10
2018-05-09T07:02:11.561Z,44.10
2018-05-09T07:03:16.720Z,44.10
2018-05-09T07:04:21.765Z,44.10
2018-05-09T07:05:26.805Z,44.10
2018-05-09T07:06:32.060Z,44.10
2018-05-09T07:07:36.860Z,44.10
2018-05-09T07:08:41.726Z,44.10
2018-05-09T07:09:46.593Z,44.20
2018-05-09T07:10:51.327Z,44.10
2018-05-09T07:11:55.993Z,44.20
2018-05-09T07:13:01.017Z,44.10
2018-05-09T07:14:05.854Z,44.10
2018-05-09T07:15:10.816Z,44.10
2018-05-09T07:16:15.717Z,44.10
2018-05-09T07:17:20.713Z,44.10
2018-05-09T07:18:25.820Z,44.10
2018-05-09T07:19:30.843Z,44.20
2018-05-09T07:20:35.551Z,44.20
2018-05-09T07:21:40.221Z,44.20
2018-05-09T07:22:44.958Z,44.20
2018-05-09T07:23:49.849Z,44.20
2018-05-09T07:24:54.770Z,44.20
2018-05-09T07:25:59.793Z,44.20
2018-05-09T07:27:04.537Z,44.10
2018-05-09T07:28:09.333Z,44.20
2018-05-09T07:29:14.129Z,44.20
2018-05-09T07:30:18.959Z,44.20
2018-05-09T07:31:23.807Z,44.10
2018-05-09T07:32:28.717Z,44.10
2018-05-09T07:33:33.525Z,44.70
2018-05-09T07:34:38.378Z,44.10
2018-05-09T07:35:43.460Z,44.10
2018-05-09T07:36:48.517Z,44.10
2018-05-09T07:37:53.441Z,44.10
2018-05-09T07:38:58.250Z,44.10
2018-05-09T07:40:02.996Z,44.10
2018-05-09T07:41:07.838Z,44.10
2018-05-09T07:42:12.911Z,44.00
2018-05-09T07:43:17.908Z,44.10
2018-05-09T07:44:23.402Z,44.10
2018-05-09T07:45:28.100Z,44.00
2018-05-09T07:46:32.997Z,44.00
2018-05-09T07:47:37.691Z,44.00
2018-05-09T07:48:42.631Z,44.00
2018-05-09T07:49:47.280Z,43.90
2018-05-09T07:50:52.208Z,43.80
2018-05-09T07:51:57.241Z,43.80
2018-05-09T07:53:02.039Z,43.80
2018-05-09T07:54:06.716Z,43.80
2018-05-09T07:55:12.003Z,43.70
2018-05-09T07:56:16.900Z,43.70
2018-05-09T07:57:21.882Z,43.60
2018-05-09T07:58:26.803Z,43.70
2018-05-09T07:59:31.727Z,43.80
2018-05-09T08:00:36.546Z,43.80
2018-05-09T08:01:41.411Z,44.50
2018-05-09T08:02:46.238Z,43.90
2018-05-09T08:03:51.442Z,43.90
2018-05-09T08:04:56.594Z,43.90
2018-05-09T08:06:01.456Z,43.90
2018-05-09T08:07:06.464Z,43.90
2018-05-09T08:08:11.274Z,44.00
2018-05-09T08:09:16.038Z,43.90
2018-05-09T08:10:21.012Z,43.90
2018-05-09T08:11:25.974Z,43.80
2018-05-09T08:12:30.900Z,43.80
2018-05-09T08:13:35.669Z,43.80
2018-05-09T08:14:40.432Z,43.70
2018-05-09T08:15:45.178Z,43.70
2018-05-09T08:16:49.872Z,43.70
2018-05-09T08:17:54.877Z,43.70
2018-05-09T08:18:59.857Z,43.80
2018-05-09T08:20:04.732Z,43.80
2018-05-09T08:21:09.378Z,43.80
2018-05-09T08:22:14.045Z,43.90
2018-05-09T08:23:18.779Z,43.90
2018-05-09T08:24:23.733Z,44.00
2018-05-09T08:25:28.476Z,44.10
2018-05-09T08:26:33.340Z,43.90
2018-05-09T08:27:38.243Z,44.00
2018-05-09T08:28:42.925Z,44.10
2018-05-09T08:29:47.552Z,44.20
2018-05-09T08:30:52.388Z,44.30
2018-05-09T08:31:57.175Z,44.30
2018-05-09T08:33:01.909Z,44.30
2018-05-09T08:34:06.672Z,44.30
2018-05-09T08:35:11.493Z,44.30
2018-05-09T08:36:16.682Z,44.30
2018-05-09T08:37:21.260Z,44.30
2018-05-09T08:38:26.091Z,44.30
2018-05-09T08:39:31.009Z,44.30
2018-05-09T08:40:35.824Z,44.30
2018-05-09T08:41:40.802Z,44.30
2018-05-09T08:42:45.506Z,44.20
2018-05-09T08:43:50.557Z,44.20
2018-05-09T08:44:55.486Z,44.20
2018-05-09T08:46:00.191Z,44.20
2018-05-09T08:47:04.879Z,44.20
2018-05-09T08:48:09.734Z,44.20
2018-05-09T08:49:14.606Z,44.20
2018-05-09T08:50:19.737Z,44.20
2018-05-09T08:51:24.843Z,44.20
2018-05-09T08:52:29.715Z,44.20
2018-05-09T08:53:34.534Z,44.20
2018-05-09T08:54:39.442Z,44.20
2018-05-09T08:55:44.321Z,44.20
2018-05-09T08:56:49.060Z,44.20
2018-05-09T08:57:53.750Z,44.30
2018-05-09T08:58:58.618Z,44.30
2018-05-09T09:00:03.644Z,44.30
2018-05-09T09:01:08.456Z,44.30
2018-05-09T09:02:13.088Z,44.30
2018-05-09T09:03:18.047Z,45.00
2018-05-09T09:04:22.797Z,44.30
2018-05-09T09:05:27.610Z,44.40
2018-05-09T09:06:32.391Z,44.30
2018-05-09T09:07:37.615Z,44.30
2018-05-09T09:08:42.404Z,44.40
2018-05-09T09:09:47.212Z,44.40
2018-05-09T09:10:52.271Z,44.40
2018-05-09T09:11:57.404Z,44.40
2018-05-09T09:13:02.265Z,44.40
2018-05-09T09:14:06.929Z,44.40
2018-05-09T09:15:11.609Z,44.40
2018-05-09T09:16:16.493Z,44.40
2018-05-09T09:17:21.310Z,44.40
2018-05-09T09:18:26.147Z,44.40
2018-05-09T09:19:31.148Z,44.40
2018-05-09T09:20:36.132Z,44.50
2018-05-09T09:21:40.716Z,44.50
2018-05-09T09:22:45.443Z,44.40
2018-05-09T09:23:50.518Z,44.40
2018-05-09T09:24:55.353Z,44.50
2018-05-09T09:26:00.219Z,44.50
2018-05-09T09:27:04.979Z,44.40
2018-05-09T09:28:09.810Z,44.40
2018-05-09T09:29:14.892Z,44.40
2018-05-09T09:30:19.565Z,44.50
2018-05-09T09:31:24.385Z,44.40
2018-05-09T09:32:29.308Z,44.50
2018-05-09T09:33:33.916Z,44.40
2018-05-09T09:34:38.774Z,44.40
2018-05-09T09:35:43.403Z,44.40
2018-05-09T09:36:48.147Z,45.10
2018-05-09T09:37:52.789Z,44.50
2018-05-09T09:38:57.420Z,44.50
2018-05-09T09:40:02.360Z,44.50
2018-05-09T09:41:07.136Z,44.50
2018-05-09T09:42:11.913Z,44.50
2018-05-09T09:43:17.108Z,44.50
2018-05-09T09:44:21.928Z,44.50
2018-05-09T09:45:26.545Z,44.50
2018-05-09T09:46:31.324Z,44.50
2018-05-09T09:47:36.019Z,44.50
2018-05-09T09:48:40.939Z,44.50
2018-05-09T09:49:45.833Z,44.50
2018-05-09T09:50:50.801Z,44.50
2018-05-09T09:51:55.796Z,44.50
2018-05-09T09:53:00.484Z,44.50
2018-05-09T09:54:05.350Z,44.50
2018-05-09T09:55:10.153Z,44.50
2018-05-09T09:56:15.015Z,44.50
2018-05-09T09:57:20.513Z,44.50
2018-05-09T09:58:25.329Z,44.50
2018-05-09T09:59:30.373Z,44.60
2018-05-09T10:00:34.967Z,44.50
2018-05-09T10:01:39.683Z,44.50
2018-05-09T10:02:44.423Z,44.50
2018-05-09T10:03:49.186Z,44.50
2018-05-09T10:04:54.068Z,44.50
2018-05-09T10:05:58.857Z,44.50
2018-05-09T10:07:03.875Z,44.50
2018-05-09T10:08:08.668Z,44.50
2018-05-09T10:09:13.528Z,44.50
2018-05-09T10:10:18.372Z,44.50
2018-05-09T10:11:23.095Z,44.50
2018-05-09T10:12:28.074Z,44.50
2018-05-09T10:13:32.918Z,44.50
2018-05-09T10:14:37.871Z,44.50
2018-05-09T10:15:42.731Z,44.50
2018-05-09T10:16:47.336Z,44.50
2018-05-09T10:17:51.959Z,44.50
2018-05-09T10:18:56.882Z,44.50
2018-05-09T10:20:01.733Z,44.50
2018-05-09T10:21:06.702Z,44.60
2018-05-09T10:22:12.345Z,44.60
2018-05-09T10:23:17.443Z,44.50
2018-05-09T10:24:22.213Z,44.60
2018-05-09T10:25:26.921Z,44.60
2018-05-09T10:26:32.374Z,44.60
2018-05-09T10:27:37.165Z,44.60
2018-05-09T10:28:41.836Z,44.60
2018-05-09T10:29:46.820Z,44.60
2018-05-09T10:30:51.579Z,44.60
2018-05-09T10:31:56.266Z,44.60
2018-05-09T10:33:01.076Z,44.60
2018-05-09T10:34:06.174Z,44.60
2018-05-09T10:35:10.894Z,44.60
2018-05-09T10:36:15.711Z,44.60
2018-05-09T10:37:20.722Z,44.60
2018-05-09T10:38:25.647Z,44.70
2018-05-09T10:39:30.672Z,44.70
2018-05-09T10:40:35.692Z,44.70
2018-05-09T10:41:40.767Z,44.70
2018-05-09T10:42:45.592Z,44.70
2018-05-09T10:43:50.444Z,44.70
2018-05-09T10:44:55.328Z,44.70
2018-05-09T10:45:59.969Z,45.30
2018-05-09T10:47:04.906Z,44.70
2018-05-09T10:48:09.704Z,44.70
2018-05-09T10:49:14.502Z,44.70
2018-05-09T10:50:19.458Z,44.70
2018-05-09T10:51:25.082Z,44.70
2018-05-09T10:52:30.012Z,44.60
2018-05-09T10:53:34.913Z,44.70
2018-05-09T10:54:39.570Z,44.70
2018-05-09T10:55:44.216Z,44.70
2018-05-09T10:56:48.802Z,44.70
2018-05-09T10:57:53.479Z,44.60
2018-05-09T10:58:58.430Z,44.60
2018-05-09T11:00:03.367Z,44.60
2018-05-09T11:01:08.152Z,44.60
2018-05-09T11:02:13.010Z,44.70
2018-05-09T11:03:17.919Z,44.70
2018-05-09T11:04:22.579Z,44.70
2018-05-09T11:05:27.280Z,44.60
2018-05-09T11:06:32.283Z,44.60
2018-05-09T11:07:37.125Z,44.60
2018-05-09T11:08:42.083Z,44.60
2018-05-09T11:09:46.921Z,44.70
2018-05-09T11:10:51.628Z,44.70
2018-05-09T11:11:56.319Z,44.80
2018-05-09T11:13:01.267Z,44.90
2018-05-09T11:14:06.048Z,44.80
2018-05-09T11:15:10.852Z,44.90
2018-05-09T11:16:15.647Z,44.90
2018-05-09T11:17:20.708Z,44.90
2018-05-09T11:18:25.558Z,44.90
2018-05-09T11:19:30.495Z,45.00
2018-05-09T11:20:35.315Z,45.00
2018-05-09T11:21:40.038Z,44.80
2018-05-09T11:22:44.867Z,44.70
2018-05-09T11:23:49.688Z,44.80
2018-05-09T11:24:54.484Z,44.70
2018-05-09T11:25:59.418Z,44.70
2018-05-09T11:27:04.326Z,44.80
2018-05-09T11:28:08.951Z,44.70
2018-05-09T11:29:14.055Z,44.70
2018-05-09T11:30:19.001Z,44.70
2018-05-09T11:31:23.756Z,44.70
2018-05-09T11:32:28.769Z,44.70
2018-05-09T11:33:33.763Z,44.80
2018-05-09T11:34:39.395Z,44.80
2018-05-09T11:35:44.335Z,44.80
2018-05-09T11:36:49.229Z,44.80
2018-05-09T11:37:53.873Z,44.90
2018-05-09T11:38:58.506Z,44.90
2018-05-09T11:40:03.449Z,44.80
2018-05-09T11:41:08.161Z,45.60
2018-05-09T11:42:13.018Z,44.80
2018-05-09T11:43:17.732Z,44.90
2018-05-09T11:44:22.410Z,44.90
2018-05-09T11:45:27.066Z,44.90
2018-05-09T11:46:32.080Z,45.00
2018-05-09T11:47:36.740Z,45.00
2018-05-09T11:48:41.823Z,44.90
2018-05-09T11:49:46.773Z,45.00
2018-05-09T11:50:51.564Z,45.10
2018-05-09T11:51:56.297Z,45.00
2018-05-09T11:53:01.132Z,45.00
2018-05-09T11:54:05.863Z,45.00
2018-05-09T11:55:10.494Z,45.00
2018-05-09T11:56:15.111Z,45.00
2018-05-09T11:57:20.599Z,45.00
2018-05-09T11:58:25.212Z,45.00
2018-05-09T11:59:29.891Z,45.00
2018-05-09T12:00:34.928Z,45.10
2018-05-09T12:01:39.584Z,45.00
2018-05-09T12:02:44.355Z,45.00
2018-05-09T12:03:49.344Z,45.00
2018-05-09T12:04:54.166Z,45.00
2018-05-09T12:05:59.032Z,45.10
2018-05-09T12:07:03.739Z,45.00
2018-05-09T12:08:08.381Z,45.10
2018-05-09T12:09:13.302Z,45.20
2018-05-09T12:10:18.193Z,45.10
2018-05-09T12:11:22.805Z,45.10
2018-05-09T12:12:27.713Z,45.10
2018-05-09T12:13:32.349Z,45.10
2018-05-09T12:14:37.006Z,45.10
2018-05-09T12:15:41.771Z,45.10
2018-05-09T12:16:46.402Z,45.10
2018-05-09T12:17:51.051Z,45.10
2018-05-09T12:18:55.938Z,45.10
2018-05-09T12:20:00.727Z,45.10
2018-05-09T12:21:05.500Z,45.10
2018-05-09T12:22:10.393Z,45.20
2018-05-09T12:23:15.243Z,45.10
2018-05-09T12:24:20.136Z,45.20
2018-05-09T12:25:24.949Z,45.20
2018-05-09T12:26:29.733Z,45.20
2018-05-09T12:27:34.566Z,45.20
2018-05-09T12:28:39.595Z,45.20
2018-05-09T12:29:44.351Z,45.20
2018-05-09T12:30:49.085Z,45.20
2018-05-09T12:31:54.179Z,45.20
2018-05-09T12:32:59.162Z,45.20
2018-05-09T12:34:04.231Z,45.20
2018-05-09T12:35:08.932Z,45.20
2018-05-09T12:36:13.772Z,45.20
2018-05-09T12:37:18.598Z,45.20
2018-05-09T12:38:23.263Z,45.30
2018-05-09T12:39:27.918Z,45.20
2018-05-09T12:40:32.854Z,45.20
2018-05-09T12:41:37.866Z,45.30
2018-05-09T12:42:42.694Z,45.30
2018-05-09T12:43:47.596Z,45.30
2018-05-09T12:44:52.252Z,45.30
2018-05-09T12:45:56.947Z,45.30
2018-05-09T12:47:01.726Z,45.30
2018-05-09T12:48:06.772Z,45.30
2018-05-09T12:49:11.596Z,45.30
2018-05-09T12:50:16.453Z,45.30
2018-05-09T12:51:21.299Z,45.30
2018-05-09T12:52:26.275Z,45.30
2018-05-09T12:53:31.249Z,45.20
2018-05-09T12:54:36.154Z,45.20
2018-05-09T12:55:41.257Z,45.30
2018-05-09T12:56:46.193Z,45.40
2018-05-09T12:57:50.783Z,45.30
2018-05-09T12:58:55.513Z,45.30
2018-05-09T13:00:00.296Z,45.30
2018-05-09T13:01:05.041Z,45.30
2018-05-09T13:02:09.715Z,45.40
2018-05-09T13:03:14.733Z,45.30
2018-05-09T13:04:19.608Z,45.30
2018-05-09T13:05:24.546Z,45.40
2018-05-09T13:06:29.462Z,45.40
2018-05-09T13:07:34.190Z,45.40
2018-05-09T13:08:38.916Z,45.30
2018-05-09T13:09:43.634Z,45.30
2018-05-09T13:10:48.192Z,45.30
2018-05-09T13:11:53.052Z,45.30
2018-05-09T13:12:57.773Z,45.40
2018-05-09T13:14:02.763Z,45.40
2018-05-09T13:15:07.721Z,45.40
2018-05-09T13:16:12.473Z,45.30
2018-05-09T13:17:17.140Z,45.30
2018-05-09T13:18:21.943Z,45.50
2018-05-09T13:19:26.678Z,45.30
2018-05-09T13:20:31.423Z,45.30
2018-05-09T13:21:36.612Z,45.30
2018-05-09T13:22:41.559Z,45.40
2018-05-09T13:23:46.399Z,45.30
2018-05-09T13:24:51.256Z,45.30
2018-05-09T13:25:55.941Z,45.50
2018-05-09T13:27:00.531Z,45.30
2018-05-09T13:28:05.365Z,45.30
2018-05-09T13:29:10.247Z,45.30
2018-05-09T13:30:15.170Z,45.30
2018-05-09T13:31:20.065Z,45.50
2018-05-09T13:32:24.894Z,45.50
2018-05-09T13:33:29.861Z,45.40
2018-05-09T13:34:34.695Z,45.40
2018-05-09T13:35:39.707Z,45.40
2018-05-09T13:36:44.447Z,45.40
2018-05-09T13:37:49.263Z,45.50
2018-05-09T13:38:54.291Z,45.50
2018-05-09T13:39:58.962Z,45.50
2018-05-09T13:41:03.839Z,45.40
2018-05-09T13:42:08.878Z,45.50
2018-05-09T13:43:13.606Z,45.50
2018-05-09T13:44:18.472Z,45.50
2018-05-09T13:45:23.299Z,45.50
2018-05-09T13:46:28.253Z,45.50
2018-05-09T13:47:33.026Z,45.40
2018-05-09T13:48:37.674Z,45.40
2018-05-09T13:49:42.416Z,45.50
2018-05-09T13:50:47.341Z,45.50
2018-05-09T13:51:52.090Z,45.50
2018-05-09T13:52:57.067Z,45.50
2018-05-09T13:54:01.812Z,45.40
2018-05-09T13:55:06.635Z,45.50
2018-05-09T13:56:11.285Z,45.50
2018-05-09T13:57:16.298Z,45.50
2018-05-09T13:58:21.582Z,45.50